Time;durP1;ratioP1;P1;durP2;ratioP2;P2;SDS_P1;SDS_P2;PMS_P1;PMS_P2;Temp;Humidity;BMP_temperature;BMP_pressure;BME280_temperature;BME280_humidity;BME280_pressure;Samples;Min_cycle;Max_cycle;Signal;HPM_P1;HPM_P2
2022/12/01 00:01:18;;;;;;;14.85;9.55;;;;;;;5.30;58.89;100451.13;4439856;32;34754;-75
2022/12/01 00:03:46;;;;;;;17.17;9.57;;;;;;;5.74;58.62;100458.00;4427420;32;34509;-74
2022/12/01 00:06:16;;;;;;;15.95;9.52;;;;;;;5.76;59.46;100464.03;4440166;32;33199;-74
2022/12/01 00:10:24;;;;;;;14.98;8.73;;;;;;;5.94;59.11;100463.50;4453254;32;34071;-75
2022/12/01 00:11:33;;;;;;;15.75;8.82;;;;;;;5.55;59.21;100456.91;4442146;32;33817;-74
2022/12/01 00:14:00;;;;;;;14.55;8.98;;;;;;;5.67;57.71;100462.53;4453936;32;33709;-75
2022/12/01 00:16:28;;;;;;;15.38;8.93;;;;;;;5.84;57.32;100463.03;4439150;32;33446;-75
2022/12/01 00:18:56;;;;;;;12.68;7.78;;;;;;;5.40;57.65;100453.47;4458468;32;34023;-75
2022/12/01 00:21:24;;;;;;;14.57;8.68;;;;;;;5.52;57.73;100455.41;4455055;32;35109;-75
2022/12/01 00:23:53;;;;;;;15.70;8.88;;;;;;;5.92;56.83;100457.50;4469386;32;34617;-76
2022/12/01 00:26:22;;;;;;;14.75;8.55;;;;;;;5.48;57.81;100450.63;4468030;32;34222;-76
2022/12/01 00:28:50;;;;;;;15.00;8.65;;;;;;;5.35;57.76;100462.94;4468900;32;33825;-75
2022/12/01 00:31:18;;;;;;;16.45;9.43;;;;;;;5.07;59.55;100471.03;4468957;32;34182;-83
2022/12/01 00:33:46;;;;;;;13.07;8.43;;;;;;;5.00;59.71;100475.53;4468083;32;34854;-74
2022/12/01 00:36:13;;;;;;;16.67;10.05;;;;;;;4.82;60.36;100467.13;4469759;32;33831;-75
2022/12/01 00:38:40;;;;;;;15.05;8.85;;;;;;;4.61;60.11;100476.84;4454861;32;34465;-74
2022/12/01 00:41:08;;;;;;;14.60;9.00;;;;;;;5.18;59.27;100468.84;4453273;32;34268;-73
2022/12/01 00:43:36;;;;;;;14.60;8.75;;;;;;;4.79;60.12;100473.69;4469446;32;33746;-75
2022/12/01 00:46:03;;;;;;;14.90;8.93;;;;;;;5.38;57.39;100469.81;4469356;32;33624;-74
2022/12/01 00:48:31;;;;;;;15.95;9.57;;;;;;;4.98;58.38;100466.81;4467316;32;33835;-75
2022/12/01 00:50:58;;;;;;;16.25;10.07;;;;;;;4.27;60.58;100470.28;4467879;32;34830;-74
2022/12/01 00:53:25;;;;;;;14.23;9.23;;;;;;;4.29;60.21;100468.25;4469413;32;33394;-71
2022/12/01 00:55:53;;;;;;;15.50;9.07;;;;;;;4.08;61.14;100471.75;4469191;32;33430;-75
2022/12/01 00:58:21;;;;;;;16.23;9.55;;;;;;;4.26;60.96;100473.19;4468651;32;33849;-74
2022/12/01 01:00:48;;;;;;;14.23;8.52;;;;;;;4.51;59.84;100476.31;4467300;32;34921;-75
2022/12/01 01:03:16;;;;;;;17.83;9.68;;;;;;;4.47;59.92;100470.50;4469250;32;34064;-75
2022/12/01 01:05:43;;;;;;;15.80;9.57;;;;;;;4.44;59.96;100478.94;4469005;32;34158;-75
2022/12/01 01:08:13;;;;;;;15.88;9.85;;;;;;;4.58;59.68;100477.25;4467605;32;34526;-74
2022/12/01 01:10:43;;;;;;;15.23;9.52;;;;;;;4.91;59.06;100479.41;4468291;32;34076;-75
2022/12/01 01:13:12;;;;;;;17.65;9.90;;;;;;;3.78;62.58;100475.47;4468110;32;33865;-73
2022/12/01 01:15:39;;;;;;;17.05;9.93;;;;;;;3.85;62.59;100471.88;4469293;32;33195;-73
2022/12/01 01:18:09;;;;;;;16.77;10.48;;;;;;;3.50;63.25;100468.09;4454720;32;33662;-72
2022/12/01 01:20:36;;;;;;;17.95;10.02;;;;;;;4.03;62.44;100462.56;4454483;32;34567;-74
2022/12/01 01:23:03;;;;;;;19.50;10.23;;;;;;;4.21;61.33;100471.06;4455048;32;34079;-73
2022/12/01 01:25:31;;;;;;;17.23;10.02;;;;;;;4.38;60.86;100468.13;4439829;32;34577;-75
2022/12/01 01:27:59;;;;;;;19.42;10.35;;;;;;;4.00;62.26;100463.78;4463409;32;33818;-73
2022/12/01 01:30:26;;;;;;;17.02;9.85;;;;;;;4.01;61.95;100459.25;4468550;32;35036;-74
2022/12/01 01:32:54;;;;;;;16.75;9.45;;;;;;;4.32;61.07;100461.69;4468807;32;34065;-75
2022/12/01 01:35:21;;;;;;;17.42;9.57;;;;;;;3.79;62.71;100461.88;4469017;32;33336;-74
2022/12/01 01:37:49;;;;;;;16.27;10.30;;;;;;;4.12;61.94;100458.75;4454551;32;33901;-74
2022/12/01 01:40:17;;;;;;;17.35;10.30;;;;;;;4.50;61.04;100464.75;4459818;32;34083;-75
2022/12/01 01:42:45;;;;;;;19.40;11.48;;;;;;;4.02;62.92;100459.06;4437921;32;34005;-73
2022/12/01 01:45:20;;;;;;;19.75;11.93;;;;;;;3.89;62.87;100457.06;4423623;32;33634;-75
2022/12/01 01:47:49;;;;;;;18.27;10.85;;;;;;;4.11;62.03;100465.16;4423565;32;34870;-75
2022/12/01 01:50:18;;;;;;;19.67;11.40;;;;;;;4.12;61.85;100466.81;4423493;32;34930;-74
2022/12/01 01:52:50;;;;;;;20.05;11.85;;;;;;;4.04;62.40;100467.78;4437711;32;33510;-74
2022/12/01 01:55:18;;;;;;;17.12;10.45;;;;;;;4.76;60.51;100467.87;4423161;32;32163;-75
2022/12/01 01:57:45;;;;;;;20.15;10.48;;;;;;;4.49;61.03;100467.63;4435152;32;34530;-73
2022/12/01 02:00:16;;;;;;;16.40;9.68;;;;;;;4.22;61.77;100463.84;4437202;32;34187;-75
2022/12/01 02:02:45;;;;;;;17.33;10.35;;;;;;;4.08;62.55;100466.38;4437877;32;34072;-74
2022/12/01 02:05:22;;;;;;;16.02;10.57;;;;;;;3.84;63.78;100480.09;4437362;32;33554;-74
2022/12/01 02:07:51;;;;;;;18.30;10.23;;;;;;;3.83;64.05;100473.91;4437517;32;33949;-74
2022/12/01 02:10:22;;;;;;;21.08;11.60;;;;;;;4.36;61.96;100471.00;4423608;32;34110;-73
2022/12/01 02:13:25;;;;;;;19.67;12.15;;;;;;;3.62;64.05;100468.44;4437269;32;34040;-74
2022/12/01 02:16:11;;;;;;;19.85;11.52;;;;;;;3.75;63.92;100463.25;4433449;32;33572;-75
2022/12/01 02:18:56;;;;;;;19.00;11.60;;;;;;;3.49;64.43;100461.88;4452083;32;33999;-73
2022/12/01 02:21:53;;;;;;;19.45;11.60;;;;;;;3.33;65.15;100464.75;4438805;32;33954;-74
2022/12/01 02:24:45;;;;;;;20.95;11.43;;;;;;;3.41;64.96;100463.81;4448453;32;34337;-74
2022/12/01 02:27:44;;;;;;;21.08;12.13;;;;;;;3.65;64.04;100473.44;4437410;32;33765;-74
2022/12/01 02:30:36;;;;;;;20.88;12.23;;;;;;;4.10;62.58;100458.09;4436903;32;34842;-74
2022/12/01 02:33:13;;;;;;;22.77;12.40;;;;;;;3.47;64.71;100465.78;4436921;32;34231;-73
2022/12/01 02:35:55;;;;;;;22.85;12.90;;;;;;;3.45;64.50;100462.44;4448929;32;34630;-73
2022/12/01 02:38:37;;;;;;;23.38;12.80;;;;;;;3.24;64.91;100463.16;4424049;32;33103;-73
2022/12/01 02:41:21;;;;;;;22.73;12.15;;;;;;;3.55;64.50;100460.31;4452190;32;34658;-73
2022/12/01 02:44:13;;;;;;;22.90;12.77;;;;;;;3.70;63.80;100453.09;4439000;32;35181;-74
2022/12/01 02:46:45;;;;;;;21.55;12.55;;;;;;;2.94;66.04;100456.91;4439281;32;33981;-75
2022/12/01 02:49:16;;;;;;;27.92;14.95;;;;;;;3.19;65.57;100458.34;4441151;32;33996;-74
2022/12/01 02:51:44;;;;;;;28.38;14.75;;;;;;;2.94;66.52;100447.03;4448661;32;33723;-75
2022/12/01 02:54:13;;;;;;;24.23;13.52;;;;;;;2.76;67.11;100447.34;4431384;32;34261;-73
2022/12/01 02:56:43;;;;;;;28.80;15.00;;;;;;;2.60;68.38;100453.69;4437871;32;34478;-74
2022/12/01 02:59:12;;;;;;;23.00;13.02;;;;;;;2.86;67.27;100455.16;4451950;32;33041;-75
2022/12/01 03:01:58;;;;;;;23.48;12.98;;;;;;;2.91;67.21;100458.09;4438428;32;33726;-74
2022/12/01 03:04:44;;;;;;;23.35;12.93;;;;;;;2.70;67.74;100452.59;4437145;32;33439;-73
2022/12/01 03:07:35;;;;;;;23.23;11.38;;;;;;;2.07;70.18;100450.00;4451680;32;34060;-73
2022/12/01 03:10:28;;;;;;;19.92;11.10;;;;;;;2.71;68.44;100449.75;4444971;32;34333;-75
2022/12/01 03:13:27;;;;;;;20.65;11.75;;;;;;;2.77;67.46;100448.22;4454545;32;34356;-74
2022/12/01 03:16:06;;;;;;;18.92;10.88;;;;;;;2.74;67.71;100452.06;4449556;32;33898;-73
2022/12/01 03:18:53;;;;;;;17.52;10.60;;;;;;;2.67;67.44;100445.75;4449016;32;33808;-73
2022/12/01 03:21:24;;;;;;;19.33;10.88;;;;;;;2.71;67.66;100448.91;4437479;32;33497;-74
2022/12/01 03:24:00;;;;;;;21.27;11.90;;;;;;;2.08;69.65;100448.19;4450286;32;34934;-74
2022/12/01 03:26:29;;;;;;;20.08;10.73;;;;;;;2.60;67.69;100444.81;4439242;32;33818;-73
2022/12/01 03:29:05;;;;;;;20.12;10.73;;;;;;;3.19;65.93;100439.56;4426636;32;33066;-74
2022/12/01 03:31:39;;;;;;;17.48;9.98;;;;;;;2.52;66.97;100437.66;4440162;32;33148;-74
2022/12/01 03:34:12;;;;;;;16.67;10.18;;;;;;;2.60;67.12;100434.09;4427875;32;33684;-74
2022/12/01 03:36:47;;;;;;;17.75;9.50;;;;;;;2.89;65.95;100433.34;4439911;32;34966;-75
2022/12/01 03:39:18;;;;;;;;;;;;;;;2.90;65.33;100432.34;4438298;32;34058;-74
2022/12/01 03:41:50;;;;;;;19.45;10.13;;;;;;;3.34;64.86;100428.84;4453812;32;33434;-76
2022/12/01 03:44:20;;;;;;;16.52;9.60;;;;;;;2.99;65.79;100425.06;4453973;32;33744;-75
2022/12/01 03:46:55;;;;;;;18.67;10.00;;;;;;;2.77;65.89;100429.44;4440103;32;33819;-74
2022/12/01 03:49:24;;;;;;;20.12;10.77;;;;;;;2.76;66.49;100427.75;4439092;32;33661;-74
2022/12/01 03:51:58;;;;;;;16.33;10.00;;;;;;;3.13;64.65;100426.91;4424777;32;34293;-73
2022/12/01 03:55:04;;;;;;;17.40;10.02;;;;;;;3.52;64.24;100424.97;4438762;32;34060;-74
2022/12/01 03:57:33;;;;;;;;;;;;;;;3.52;63.41;100424.97;4396808;32;35198;-74
2022/12/01 04:00:01;;;;;;;0.93;0.93;;;;;;;3.04;64.84;100417.28;4452400;32;35564;-74
2022/12/01 04:02:39;;;;;;;16.45;9.45;;;;;;;2.85;65.46;100411.44;4438702;32;34564;-74
2022/12/01 04:05:10;;;;;;;17.40;9.35;;;;;;;2.49;66.29;100405.06;4424489;32;33081;-74
2022/12/01 04:07:38;;;;;;;16.02;9.10;;;;;;;2.37;66.86;100408.16;4424065;32;34315;-73
2022/12/01 04:10:06;;;;;;;15.93;9.45;;;;;;;2.56;65.86;100409.50;4459506;32;35328;-74
2022/12/01 04:12:34;;;;;;;16.95;9.32;;;;;;;2.63;66.17;100407.75;4439101;32;31794;-74
2022/12/01 04:15:09;;;;;;;17.08;9.65;;;;;;;2.74;65.83;100403.81;4453938;32;34035;-74
2022/12/01 04:17:38;;;;;;;15.85;9.05;;;;;;;2.64;65.54;100403.25;4453781;32;35118;-74
2022/12/01 04:20:06;;;;;;;17.48;9.10;;;;;;;2.57;65.96;100396.94;4464482;32;34683;-73
2022/12/01 04:22:33;;;;;;;17.35;9.35;;;;;;;2.51;66.05;100397.69;4454418;32;32971;-75
2022/12/01 04:25:02;;;;;;;17.60;9.38;;;;;;;3.06;63.99;100405.34;4469222;32;34802;-74
2022/12/01 04:27:29;;;;;;;14.93;8.85;;;;;;;3.16;63.56;100417.69;4468980;32;33634;-73
2022/12/01 04:29:57;;;;;;;15.40;8.68;;;;;;;3.29;63.16;100431.28;4470595;32;33796;-75
2022/12/01 04:32:25;;;;;;;16.17;9.05;;;;;;;3.53;62.01;100437.37;4469576;32;34092;-75
2022/12/01 04:34:53;;;;;;;17.12;9.45;;;;;;;3.31;63.38;100441.81;4455573;32;33263;-76
2022/12/01 04:37:20;;;;;;;16.73;9.30;;;;;;;2.66;64.96;100436.91;4455017;32;34315;-74
2022/12/01 04:39:48;;;;;;;16.00;8.77;;;;;;;2.71;65.44;100432.84;4453811;32;33633;-74
2022/12/01 04:42:16;;;;;;;16.83;8.43;;;;;;;2.97;63.93;100427.06;4469379;32;34620;-74
2022/12/01 04:44:43;;;;;;;15.95;8.63;;;;;;;3.15;63.52;100430.22;4467952;32;34778;-74
2022/12/01 04:47:10;;;;;;;18.08;9.68;;;;;;;3.44;62.50;100425.91;4468790;32;34199;-74
2022/12/01 04:49:38;;;;;;;22.27;10.82;;;;;;;3.06;63.56;100429.47;4468500;32;33720;-75
2022/12/01 04:52:06;;;;;;;23.17;10.90;;;;;;;2.89;63.99;100430.66;4455328;32;33457;-80
2022/12/01 04:54:33;;;;;;;17.70;10.18;;;;;;;3.08;63.80;100448.06;4467576;32;34822;-80
2022/12/01 04:57:01;;;;;;;18.02;10.30;;;;;;;3.42;62.30;100450.22;4469406;32;33955;-75
2022/12/01 04:59:28;;;;;;;16.52;9.05;;;;;;;3.43;62.33;100461.78;4468249;32;34200;-76
2022/12/01 05:01:56;;;;;;;16.60;9.20;;;;;;;3.14;63.58;100449.19;4469239;32;33473;-71
2022/12/01 05:04:23;;;;;;;17.20;9.00;;;;;;;3.17;63.56;100455.00;4468385;32;35271;-69
2022/12/01 05:06:53;;;;;;;15.90;9.43;;;;;;;3.56;62.20;100453.91;4469162;32;34093;-70
2022/12/01 05:09:20;;;;;;;17.40;9.75;;;;;;;3.01;63.58;100455.19;4454057;32;34650;-70
2022/12/01 05:11:48;;;;;;;16.75;9.38;;;;;;;3.35;63.22;100460.03;4468364;32;33039;-70
2022/12/01 05:14:15;;;;;;;18.12;9.90;;;;;;;3.61;62.34;100459.56;4468894;32;34729;-75
2022/12/01 05:16:43;;;;;;;16.90;9.95;;;;;;;3.62;62.57;100447.81;4468651;32;33524;-72
2022/12/01 05:21:56;;;;;;;17.77;9.90;;;;;;;3.99;60.76;100448.69;4437956;32;33364;-71
2022/12/01 05:24:24;;;;;;;22.27;11.43;;;;;;;3.97;60.92;100444.53;4438474;32;34089;-70
2022/12/01 05:26:51;;;;;;;22.58;12.40;;;;;;;3.93;61.38;100452.16;4463753;32;34300;-71
2022/12/01 05:29:19;;;;;;;19.95;10.57;;;;;;;3.41;62.78;100447.72;4437198;32;33844;-71
2022/12/01 05:31:47;;;;;;;19.50;10.60;;;;;;;3.14;63.80;100446.53;4437934;32;33366;-72
2022/12/01 05:34:15;;;;;;;19.48;11.20;;;;;;;2.91;64.30;100433.16;4437194;32;33911;-70
2022/12/01 05:36:42;;;;;;;23.12;11.10;;;;;;;2.38;66.81;100441.16;4436124;32;33893;-71
2022/12/01 05:39:10;;;;;;;16.80;10.05;;;;;;;2.60;65.98;100450.19;4437200;32;34843;-70
2022/12/01 05:41:37;;;;;;;19.12;10.32;;;;;;;2.91;65.04;100450.06;4441873;32;33473;-71
2022/12/01 05:44:05;;;;;;;18.77;10.55;;;;;;;3.08;64.24;100451.56;4438691;32;34713;-72
2022/12/01 05:46:32;;;;;;;20.42;11.35;;;;;;;3.13;64.27;100455.56;4464496;32;34865;-69
2022/12/01 05:48:59;;;;;;;16.40;10.43;;;;;;;2.80;65.18;100447.84;4468184;32;34976;-71
2022/12/01 05:51:27;;;;;;;19.33;10.40;;;;;;;3.34;63.62;100447.63;4468400;32;33663;-70
2022/12/01 05:53:54;;;;;;;21.73;11.82;;;;;;;3.67;62.13;100461.53;4468994;32;33798;-70
2022/12/01 05:56:21;;;;;;;20.55;11.55;;;;;;;3.32;63.06;100460.41;4466955;32;34958;-70
2022/12/01 05:58:49;;;;;;;21.95;12.27;;;;;;;2.81;64.56;100457.56;4458226;32;34062;-69
2022/12/01 06:01:16;;;;;;;19.17;11.05;;;;;;;3.14;64.31;100458.06;4437452;32;33652;-69
2022/12/01 06:03:44;;;;;;;19.83;10.63;;;;;;;3.08;64.07;100462.31;4437849;32;33883;-72
2022/12/01 06:06:11;;;;;;;19.30;10.68;;;;;;;2.79;65.34;100456.91;4457907;32;35030;-72
2022/12/01 06:08:39;;;;;;;5.93;3.42;;;;;;;2.81;65.50;100466.41;4453949;32;33990;-71
2022/12/01 06:11:06;;;;;;;38.13;31.48;;;;;;;3.07;63.97;100474.06;4463015;32;33104;-71
2022/12/01 06:13:34;;;;;;;23.40;14.40;;;;;;;2.42;66.65;100482.62;4464126;32;34034;-80
2022/12/01 06:16:04;;;;;;;25.58;14.07;;;;;;;2.99;65.63;100478.66;4428111;32;167765;-75
2022/12/01 06:18:34;;;;;;;20.52;11.75;;;;;;;2.60;66.54;100480.47;4455194;32;34624;-75
2022/12/01 06:21:01;;;;;;;21.30;11.88;;;;;;;2.74;66.19;100476.16;4468440;32;33296;-74
2022/12/01 06:23:29;;;;;;;22.35;12.25;;;;;;;2.56;66.70;100489.06;4468193;32;34358;-75
2022/12/01 06:25:57;;;;;;;20.75;12.05;;;;;;;3.03;65.11;100482.66;4468256;32;35107;-75
2022/12/01 06:28:24;;;;;;;23.08;12.40;;;;;;;2.78;65.87;100482.00;4467743;32;34789;-75
2022/12/01 06:30:52;;;;;;;25.88;12.43;;;;;;;2.73;66.08;100493.28;4466632;32;33508;-73
2022/12/01 06:33:27;;;;;;;22.67;12.25;;;;;;;3.17;64.37;100481.00;4468681;32;34075;-77
2022/12/01 06:36:01;;;;;;;25.73;14.80;;;;;;;2.68;65.78;100476.91;4468165;32;35135;-75
2022/12/01 06:38:30;;;;;;;24.37;11.95;;;;;;;3.28;64.23;100485.91;4453929;32;34785;-72
2022/12/01 06:40:57;;;;;;;26.40;13.13;;;;;;;3.24;63.84;100479.25;4453802;32;34443;-74
2022/12/01 06:43:25;;;;;;;23.48;12.50;;;;;;;3.20;63.73;100476.12;4468383;32;34682;-74
2022/12/01 06:45:53;;;;;;;22.87;13.20;;;;;;;3.42;62.91;100476.22;4466760;32;33973;-75
2022/12/01 06:48:27;;;;;;;26.48;15.45;;;;;;;2.91;64.24;100479.56;4452251;32;32360;-76
2022/12/01 06:50:58;;;;;;;28.08;16.65;;;;;;;2.65;65.58;100480.75;4467776;32;33563;-75
2022/12/01 06:53:27;;;;;;;26.37;15.20;;;;;;;3.24;64.30;100479.25;4453800;32;34033;-74
2022/12/01 06:55:59;;;;;;;24.95;13.62;;;;;;;2.88;64.86;100472.72;4454075;32;33905;-76
2022/12/01 06:58:27;;;;;;;26.42;13.77;;;;;;;3.25;64.26;100479.06;4453552;32;34163;-75
2022/12/01 07:00:56;;;;;;;28.02;15.98;;;;;;;3.43;64.00;100486.75;4467139;32;34097;-75
2022/12/01 07:03:23;;;;;;;28.95;15.65;;;;;;;3.62;63.40;100490.75;4440508;32;34184;-75
2022/12/01 07:05:57;;;;;;;30.37;16.17;;;;;;;3.45;63.95;100487.41;4437114;32;34943;-82
2022/12/01 07:08:29;;;;;;;32.50;15.98;;;;;;;3.56;64.09;100490.66;4453550;32;33922;-82
2022/12/01 07:11:01;;;;;;;30.10;15.73;;;;;;;3.53;64.44;100491.03;4467512;32;34485;-72
2022/12/01 07:13:29;;;;;;;25.52;14.30;;;;;;;3.61;63.51;100486.41;4468526;32;33193;-77
2022/12/01 07:16:01;;;;;;;31.95;16.10;;;;;;;3.52;64.38;100492.91;4463833;32;36005;-74
2022/12/01 07:18:30;;;;;;;28.38;15.13;;;;;;;2.92;66.06;100497.31;4440246;32;33468;-81
2022/12/01 07:21:02;;;;;;;32.70;16.20;;;;;;;3.27;65.21;100500.34;4462305;32;34608;-82
2022/12/01 07:23:30;;;;;;;26.60;14.65;;;;;;;3.64;63.98;100499.44;4459667;32;34385;-77
2022/12/01 07:26:06;;;;;;;27.30;14.68;;;;;;;3.36;64.46;100495.75;4460345;32;34946;-80
2022/12/01 07:28:34;;;;;;;28.55;15.65;;;;;;;2.87;66.87;100488.97;4459330;32;33654;-86
2022/12/01 07:31:07;;;;;;;29.58;16.27;;;;;;;1.81;70.85;100490.44;4459332;32;34452;-75
2022/12/01 07:33:35;;;;;;;29.47;16.93;;;;;;;2.32;69.44;100485.53;4459802;32;34068;-72
2022/12/01 07:36:03;;;;;;;26.80;16.77;;;;;;;2.80;68.69;100490.72;4459774;32;34196;-72
2022/12/01 07:38:32;;;;;;;97.30;49.22;;;;;;;2.51;69.20;100489.59;4458138;32;33939;-72
2022/12/01 07:41:02;;;;;;;43.83;24.85;;;;;;;2.98;67.80;100488.56;4448417;32;34202;-71
2022/12/01 07:43:30;;;;;;;51.10;27.77;;;;;;;3.23;67.86;100491.00;4446099;32;34361;-80
2022/12/01 07:46:09;;;;;;;45.75;27.02;;;;;;;3.74;66.08;100492.97;4463712;32;33933;-80
2022/12/01 07:48:38;;;;;;;29.12;18.17;;;;;;;3.96;65.37;100493.88;4452884;32;34146;-82
2022/12/01 07:51:07;;;;;;;29.30;15.90;;;;;;;3.96;64.85;100497.41;4441219;32;34206;-73
2022/12/01 07:53:34;;;;;;;26.52;14.82;;;;;;;3.87;64.89;100499.34;4453779;32;34066;-84
2022/12/01 07:56:04;;;;;;;22.70;13.62;;;;;;;3.95;64.58;100498.41;4452344;32;33813;-77
2022/12/01 07:58:35;;;;;;;24.65;15.02;;;;;;;3.99;63.95;100505.06;4455522;32;33960;-81
2022/12/01 08:01:08;;;;;;;26.00;14.65;;;;;;;4.97;60.99;100508.22;4455551;32;33014;-79
2022/12/01 08:03:36;;;;;;;22.35;12.75;;;;;;;4.92;61.63;100507.94;4469453;32;33451;-78
2022/12/01 08:06:04;;;;;;;22.13;13.10;;;;;;;4.96;62.26;100511.91;4452744;32;34166;-70
2022/12/01 08:08:33;;;;;;;21.60;12.48;;;;;;;4.94;60.70;100508.56;4439421;32;34089;-71
2022/12/01 08:11:05;;;;;;;27.05;16.65;;;;;;;5.35;60.80;100508.69;4439721;32;33949;-77
2022/12/01 08:13:32;;;;;;;0.70;0.60;;;;;;;5.75;59.59;100505.47;4453269;32;34005;-76
2022/12/01 08:16:04;;;;;;;33.30;16.67;;;;;;;6.14;58.99;100498.63;4454891;32;34960;-78
2022/12/01 08:18:38;;;;;;;35.58;19.08;;;;;;;5.75;59.42;100505.47;4460571;32;33424;-72
2022/12/01 08:21:08;;;;;;;27.62;14.82;;;;;;;6.10;58.71;100503.56;4451068;32;33162;-73
2022/12/01 08:23:35;;;;;;;24.80;14.18;;;;;;;6.91;56.34;100497.38;4439503;32;33904;-74
2022/12/01 08:26:07;;;;;;;24.05;13.40;;;;;;;6.42;56.49;100490.44;4438467;32;34964;-70
2022/12/01 08:28:34;;;;;;;20.15;12.55;;;;;;;7.21;55.70;100496.12;4437303;32;33785;-71
2022/12/01 08:31:09;;;;;;;20.88;13.25;;;;;;;7.57;55.71;100498.34;4437431;32;33476;-73
2022/12/01 08:33:37;;;;;;;19.35;10.45;;;;;;;8.17;53.93;100495.47;4436881;32;33560;-73
2022/12/01 08:36:05;;;;;;;17.35;10.23;;;;;;;8.77;50.54;100496.00;4436261;32;34156;-70
2022/12/01 08:38:32;;;;;;;17.85;10.15;;;;;;;9.08;49.74;100498.91;4437422;32;34055;-73
2022/12/01 08:41:01;;;;;;;18.48;11.27;;;;;;;9.75;48.15;100497.22;4437432;32;33258;-70
2022/12/01 08:43:29;;;;;;;17.08;10.80;;;;;;;10.11;48.98;100495.59;4423813;32;34801;-75
2022/12/01 08:46:16;;;;;;;19.50;10.93;;;;;;;10.74;46.05;100505.19;4443952;32;35232;-74
2022/12/01 08:48:44;;;;;;;19.17;10.02;;;;;;;11.06;44.94;100497.59;4429455;32;34068;-72
2022/12/01 08:51:14;;;;;;;17.62;9.98;;;;;;;11.15;44.63;100505.41;4442913;32;34365;-74
2022/12/01 08:53:44;;;;;;;16.77;9.73;;;;;;;11.48;44.41;100502.94;4453278;32;34726;-73
2022/12/01 08:56:20;;;;;;;16.65;10.18;;;;;;;11.58;43.14;100505.09;4452446;32;35041;-70
2022/12/01 08:58:47;;;;;;;16.77;10.05;;;;;;;11.32;43.09;100508.25;4438617;32;34170;-69
2022/12/01 09:01:15;;;;;;;18.20;10.80;;;;;;;11.34;43.64;100504.25;4438893;32;33569;-73
2022/12/01 09:03:43;;;;;;;14.32;9.88;;;;;;;11.78;42.26;100512.03;4433562;32;33528;-70
2022/12/01 09:06:21;;;;;;;17.20;10.57;;;;;;;11.97;41.31;100510.03;4437399;32;33897;-71
2022/12/01 09:08:49;;;;;;;17.52;10.38;;;;;;;12.26;41.71;100500.84;4422196;32;33206;-77
2022/12/01 09:11:17;;;;;;;18.73;11.52;;;;;;;12.43;42.25;100508.25;4443417;32;33597;-76
2022/12/01 09:13:45;;;;;;;17.02;11.40;;;;;;;11.84;40.55;100505.66;4439099;32;32629;-81
2022/12/01 09:16:21;;;;;;;20.02;10.75;;;;;;;11.62;41.96;100498.13;4451928;32;34301;-86
2022/12/01 09:18:48;;;;;;;17.02;10.10;;;;;;;12.22;42.74;100502.38;4432813;32;33704;-77
2022/12/01 09:21:25;;;;;;;14.23;8.85;;;;;;;11.84;40.50;100505.66;4467899;32;32947;-77
2022/12/01 09:23:53;;;;;;;14.82;9.23;;;;;;;11.01;41.61;100504.78;4465386;32;34404;-78
2022/12/01 09:26:20;;;;;;;18.33;11.07;;;;;;;11.23;40.97;100492.31;4466844;32;35130;-76
2022/12/01 09:28:52;;;;;;;17.33;9.10;;;;;;;10.48;42.84;100494.72;4453060;32;34605;-71
2022/12/01 09:31:22;;;;;;;19.02;10.15;;;;;;;10.47;42.24;100488.44;4467343;32;33462;-79
2022/12/01 09:33:55;;;;;;;17.45;10.05;;;;;;;9.44;45.03;100492.78;4468560;32;33969;-76
2022/12/01 09:36:23;;;;;;;16.17;9.68;;;;;;;9.00;46.16;100486.47;4450742;32;34209;-75
2022/12/01 09:38:50;;;;;;;15.35;8.80;;;;;;;8.24;48.78;100490.03;4453285;32;33712;-77
2022/12/01 09:41:25;;;;;;;15.43;9.00;;;;;;;8.61;47.49;100488.41;4468946;32;33286;-70
2022/12/01 09:43:59;;;;;;;13.98;8.98;;;;;;;7.72;49.66;100485.44;4468619;32;34074;-80
2022/12/01 09:46:33;;;;;;;14.98;8.65;;;;;;;7.90;49.48;100476.66;4441038;32;33939;-72
2022/12/01 09:49:02;;;;;;;15.23;8.95;;;;;;;7.11;51.73;100474.97;4468270;32;34169;-81
2022/12/01 09:51:34;;;;;;;13.00;8.63;;;;;;;7.83;50.05;100477.72;4454063;32;33714;-76
2022/12/01 09:54:02;;;;;;;14.27;8.63;;;;;;;8.14;49.49;100477.81;4453801;32;33915;-76
2022/12/01 09:56:35;;;;;;;15.77;8.73;;;;;;;8.29;48.44;100474.81;4453719;32;34208;-77
2022/12/01 09:59:06;;;;;;;13.60;8.55;;;;;;;7.50;50.63;100475.94;4453747;32;34633;-76
2022/12/01 10:01:40;;;;;;;17.48;9.43;;;;;;;7.89;49.11;100471.47;4454162;32;33360;-79
2022/12/01 10:04:12;;;;;;;13.65;8.98;;;;;;;7.64;49.76;100472.16;4454258;32;34675;-78
2022/12/01 10:06:53;;;;;;;16.55;10.05;;;;;;;6.91;52.04;100466.84;4452502;32;33889;-78
2022/12/01 10:09:58;;;;;;;16.20;9.00;;;;;;;6.37;53.53;100463.22;4453412;32;34521;-81
2022/12/01 10:12:32;;;;;;;14.95;9.38;;;;;;;6.49;53.74;100466.19;4451426;32;33584;-80
2022/12/01 10:15:24;;;;;;;17.25;9.45;;;;;;;6.83;52.77;100459.78;4452340;32;34881;-81
2022/12/01 10:18:12;;;;;;;18.87;10.43;;;;;;;6.62;53.68;100463.50;4444142;32;34696;-75
2022/12/01 10:20:44;;;;;;;15.75;9.70;;;;;;;7.07;52.87;100458.34;4450794;32;34646;-75
2022/12/01 10:23:40;;;;;;;14.52;8.70;;;;;;;6.90;53.08;100454.41;4451700;32;33420;-73
2022/12/01 10:26:25;;;;;;;16.40;9.40;;;;;;;7.24;52.04;100452.53;4452205;32;34003;-73
2022/12/01 10:29:26;;;;;;;15.43;10.00;;;;;;;6.86;53.70;100447.75;4467711;32;34285;-72
2022/12/01 10:31:59;;;;;;;14.95;9.07;;;;;;;7.50;51.52;100447.06;4467904;32;34642;-72
2022/12/01 10:34:29;;;;;;;15.13;9.30;;;;;;;7.68;51.24;100448.28;4468393;32;33568;-74
2022/12/01 10:36:57;;;;;;;15.25;9.68;;;;;;;7.36;52.35;100435.47;4453966;32;33704;-72
2022/12/01 10:39:28;;;;;;;15.52;8.95;;;;;;;7.79;50.20;100437.63;4453709;32;34742;-72
2022/12/01 10:42:07;;;;;;;16.58;10.10;;;;;;;7.63;50.66;100438.09;4448353;32;34074;-82
2022/12/01 10:44:34;;;;;;;14.27;9.23;;;;;;;7.98;49.85;100433.19;4439470;32;34411;-78
2022/12/01 10:47:02;;;;;;;16.02;10.20;;;;;;;7.74;50.74;100437.44;4467684;32;34055;-80
2022/12/01 10:49:38;;;;;;;14.23;9.32;;;;;;;7.38;51.42;100438.78;4453425;32;34142;-81
2022/12/01 10:52:07;;;;;;;16.35;10.15;;;;;;;7.39;52.36;100435.06;4468490;32;34077;-78
2022/12/01 10:54:39;;;;;;;15.88;8.82;;;;;;;7.86;50.39;100434.06;4454251;32;33324;-77
2022/12/01 10:57:14;;;;;;;19.17;11.00;;;;;;;7.93;49.74;100446.50;4467908;32;34753;-76
2022/12/01 11:00:01;;;;;;;14.27;9.85;;;;;;;7.67;51.07;100439.34;4453698;32;33909;-71
2022/12/01 11:02:30;;;;;;;16.17;10.25;;;;;;;7.88;50.50;100437.37;4452587;32;34027;-76
2022/12/01 11:05:04;;;;;;;16.80;10.25;;;;;;;7.90;50.10;100446.09;4453532;32;34238;-71
2022/12/01 11:07:34;;;;;;;15.95;10.57;;;;;;;7.14;52.48;100424.06;4448637;32;33599;-72
2022/12/01 11:10:16;;;;;;;21.45;11.55;;;;;;;7.04;53.37;100428.25;4422084;32;34848;-72
2022/12/01 11:12:52;;;;;;;22.77;13.32;;;;;;;6.87;53.51;100423.28;4436404;32;33700;-72
2022/12/01 11:15:26;;;;;;;22.27;12.52;;;;;;;7.49;51.94;100412.16;4436220;32;33489;-72
2022/12/01 11:18:21;;;;;;;20.57;12.47;;;;;;;7.91;50.77;100418.88;4424141;32;34031;-71
2022/12/01 11:21:13;;;;;;;18.15;10.90;;;;;;;7.59;51.54;100408.00;4420231;32;34910;-71
2022/12/01 11:23:49;;;;;;;18.00;10.63;;;;;;;7.58;51.78;100400.94;4437174;32;33915;-71
2022/12/01 11:26:31;;;;;;;18.77;11.20;;;;;;;7.73;51.49;100407.94;4436931;32;33427;-71
2022/12/01 11:29:02;;;;;;;19.85;12.23;;;;;;;7.96;50.26;100407.44;4437512;32;33716;-70
2022/12/01 11:31:41;;;;;;;17.85;10.35;;;;;;;7.93;50.98;100405.16;4436154;32;34856;-73
2022/12/01 11:34:18;;;;;;;19.17;11.20;;;;;;;8.21;50.10;100397.53;4455450;32;33626;-75
2022/12/01 11:36:48;;;;;;;17.02;10.95;;;;;;;8.11;50.74;100404.44;4440797;32;34447;-69
2022/12/01 11:39:37;;;;;;;15.82;10.60;;;;;;;8.58;49.32;100407.72;4451127;32;33869;-72
2022/12/01 11:42:23;;;;;;;18.10;11.10;;;;;;;8.35;49.94;100395.53;4442154;32;34351;-73
2022/12/01 11:45:04;;;;;;;19.00;11.25;;;;;;;8.00;50.84;100397.84;4425944;32;32915;-69